Time;durP1;ratioP1;P1;durP2;ratioP2;P2;SDS_P1;SDS_P2;PMS_P1;PMS_P2;Temp;Humidity;BMP_temperature;BMP_pressure;BME280_temperature;BME280_humidity;BME280_pressure;Samples;Min_cycle;Max_cycle;Signal;HPM_P1;HPM_P2
2023/01/03 00:01:30;;;;;;;22.20;13.32;;;;;;;16.70;62.38;101069.44;5128864;27;20044;-58
2023/01/03 00:03:59;;;;;;;20.63;13.38;;;;;;;16.67;62.63;101058.84;5124217;27;20613;-58
2023/01/03 00:06:31;;;;;;;22.33;13.23;;;;;;;16.65;62.45;101065.31;5120450;27;20039;-60
2023/01/03 00:09:00;;;;;;;20.60;13.38;;;;;;;16.63;62.44;101069.97;5131183;27;20074;-59
2023/01/03 00:14:35;;;;;;;20.02;12.10;;;;;;;16.56;62.65;101067.69;5019826;28;20049;-59
2023/01/03 00:17:04;;;;;;;23.27;13.63;;;;;;;16.55;62.77;101078.59;5047392;28;20504;-59
2023/01/03 00:19:35;;;;;;;21.67;12.57;;;;;;;16.52;62.67;101073.44;5077478;27;20423;-59
2023/01/03 00:22:04;;;;;;;20.52;12.88;;;;;;;16.49;62.63;101079.88;5123576;27;20051;-59
2023/01/03 00:24:33;;;;;;;21.98;13.05;;;;;;;16.47;62.64;101072.88;5128785;27;20043;-60
2023/01/03 00:27:01;;;;;;;21.42;13.75;;;;;;;16.45;62.93;101081.09;5117079;27;20071;-59
2023/01/03 00:29:29;;;;;;;20.20;12.82;;;;;;;16.43;62.77;101088.41;5128219;27;20477;-60
2023/01/03 00:31:57;;;;;;;20.45;13.23;;;;;;;16.42;62.81;101094.78;5123511;27;20043;-59
2023/01/03 00:34:26;;;;;;;21.15;13.07;;;;;;;16.40;62.71;101098.53;5120300;27;20071;-58
2023/01/03 00:36:54;;;;;;;20.98;12.80;;;;;;;16.39;62.85;101094.13;5130435;27;20465;-59
2023/01/03 00:39:24;;;;;;;20.38;12.52;;;;;;;16.35;62.88;101093.47;5118263;27;20047;-59
2023/01/03 00:41:53;;;;;;;20.40;12.68;;;;;;;16.34;63.05;101099.84;5124668;27;20412;-60
2023/01/03 00:44:22;;;;;;;19.98;12.80;;;;;;;16.31;62.92;101109.00;5126638;27;20043;-59
2023/01/03 00:46:50;;;;;;;20.65;12.55;;;;;;;16.30;63.00;101111.78;5116667;27;20050;-58
2023/01/03 00:49:18;;;;;;;20.00;12.43;;;;;;;16.27;62.94;101106.63;5129418;27;20400;-61
2023/01/03 00:51:46;;;;;;;20.35;12.68;;;;;;;16.25;63.00;101101.34;5103164;27;20075;-58
2023/01/03 00:54:15;;;;;;;19.58;12.23;;;;;;;16.24;63.08;101098.78;5121247;27;20047;-60
2023/01/03 00:56:46;;;;;;;21.65;12.50;;;;;;;16.22;62.70;101100.72;5129585;27;20047;-60
2023/01/03 00:59:16;;;;;;;19.20;12.38;;;;;;;16.19;63.05;101103.59;5127684;27;20078;-60
2023/01/03 01:01:46;;;;;;;20.08;12.18;;;;;;;16.17;63.04;101109.09;5102767;27;20042;-59
2023/01/03 01:04:18;;;;;;;19.98;12.07;;;;;;;16.14;63.01;101103.06;5120981;27;20046;-60
2023/01/03 01:06:48;;;;;;;18.90;11.93;;;;;;;16.12;63.11;101111.25;5129865;27;20546;-60
2023/01/03 01:09:21;;;;;;;18.17;11.88;;;;;;;16.11;63.10;101105.97;5117107;27;20860;-60
2023/01/03 01:11:51;;;;;;;19.00;12.07;;;;;;;16.09;63.07;101107.91;5106175;28;20044;-60
2023/01/03 01:14:22;;;;;;;20.30;12.20;;;;;;;16.07;63.21;101108.00;5125751;27;20553;-60
2023/01/03 01:16:54;;;;;;;18.02;11.50;;;;;;;16.04;63.23;101110.94;5116048;27;20051;-59
2023/01/03 01:19:24;;;;;;;17.88;11.48;;;;;;;16.01;63.22;101106.59;5128121;27;20054;-60
2023/01/03 01:21:52;;;;;;;16.23;10.68;;;;;;;16.01;63.13;101111.13;5121908;27;20058;-60
2023/01/03 01:24:21;;;;;;;19.02;12.18;;;;;;;15.99;63.16;101113.91;5120137;27;20075;-60
2023/01/03 01:26:51;;;;;;;17.63;11.77;;;;;;;15.97;63.25;101112.31;5129534;27;20043;-60
2023/01/03 01:29:19;;;;;;;17.08;11.45;;;;;;;15.96;63.17;101107.91;5116957;27;20035;-60
2023/01/03 01:31:48;;;;;;;18.65;11.85;;;;;;;15.93;63.33;101114.38;5124346;27;20057;-60
2023/01/03 01:34:16;;;;;;;19.15;11.48;;;;;;;15.92;63.21;101115.34;5124999;27;20054;-60
2023/01/03 01:36:46;;;;;;;17.00;11.05;;;;;;;15.90;63.33;101108.31;5116300;27;20047;-60
2023/01/03 01:39:17;;;;;;;16.63;11.10;;;;;;;15.89;63.25;101107.44;5115768;27;20472;-60
2023/01/03 01:44:54;;;;;;;18.90;11.18;;;;;;;15.84;63.43;101104.25;5127214;27;20118;-60
2023/01/03 01:47:34;;;;;;;17.35;11.30;;;;;;;15.83;63.32;101097.13;5112412;28;20044;-60
2023/01/03 01:50:17;;;;;;;16.63;10.48;;;;;;;15.82;63.49;101099.91;5112205;28;20100;-59
2023/01/03 01:52:50;;;;;;;16.73;10.40;;;;;;;15.81;63.48;101099.03;5112096;28;20397;-60
2023/01/03 01:55:23;;;;;;;18.92;11.80;;;;;;;15.78;63.42;101101.94;5094011;28;20395;-60
2023/01/03 01:57:52;;;;;;;16.85;10.35;;;;;;;15.73;63.48;101098.72;5114632;28;20459;-61
2023/01/03 02:00:21;;;;;;;17.83;10.98;;;;;;;15.76;63.55;101111.09;5125099;28;20142;-60
2023/01/03 02:02:52;;;;;;;18.55;11.18;;;;;;;15.73;63.42;101114.88;5115355;28;20043;-60
2023/01/03 02:05:22;;;;;;;18.33;10.82;;;;;;;15.72;63.42;101126.56;5127913;28;20496;-59
2023/01/03 02:07:52;;;;;;;17.85;10.85;;;;;;;15.71;63.37;101116.78;5120926;28;20058;-60
2023/01/03 02:10:31;;;;;;;16.42;10.82;;;;;;;15.70;63.55;101117.75;5119164;28;20135;-60
2023/01/03 02:13:07;;;;;;;15.77;9.95;;;;;;;15.64;63.51;101108.28;5128934;28;20051;-59
2023/01/03 02:15:49;;;;;;;15.70;10.40;;;;;;;15.66;63.48;101114.41;5100372;28;20043;-59
2023/01/03 02:18:32;;;;;;;17.73;10.48;;;;;;;15.63;63.41;101117.31;5101414;28;20055;-59
2023/01/03 02:21:24;;;;;;;16.08;10.35;;;;;;;15.63;63.33;101121.81;5128794;28;20076;-59
2023/01/03 02:24:26;;;;;;;15.32;9.98;;;;;;;15.61;63.52;101118.38;5121012;28;20074;-59
2023/01/03 02:27:02;;;;;;;14.50;9.57;;;;;;;15.58;63.72;101110.47;5100090;28;20396;-58
2023/01/03 02:30:00;;;;;;;16.17;10.15;;;;;;;15.57;63.51;101116.84;5126396;28;20049;-58
2023/01/03 02:32:38;;;;;;;15.95;10.23;;;;;;;15.55;63.49;101114.25;5121895;28;20089;-58
2023/01/03 02:35:15;;;;;;;15.48;9.70;;;;;;;15.54;63.60;101117.91;5115293;28;20051;-58
2023/01/03 02:37:51;;;;;;;15.15;10.43;;;;;;;15.53;63.51;101117.97;5124398;28;20114;-58
2023/01/03 02:40:27;;;;;;;13.30;9.38;;;;;;;15.51;63.50;101122.59;5124747;28;20472;-59
2023/01/03 02:43:01;;;;;;;15.15;9.63;;;;;;;15.51;63.50;101128.00;5115216;28;20047;-59
2023/01/03 02:45:56;;;;;;;14.23;9.85;;;;;;;15.49;63.49;101129.91;5126214;28;20074;-58
2023/01/03 02:48:33;;;;;;;14.57;9.10;;;;;;;15.45;63.53;101121.22;5125398;27;20043;-58
2023/01/03 02:51:08;;;;;;;14.07;9.38;;;;;;;15.45;63.64;101130.13;5118030;27;20074;-59
2023/01/03 02:53:41;;;;;;;12.52;8.60;;;;;;;15.43;63.57;101137.41;5129262;27;20101;-59
2023/01/03 02:56:12;;;;;;;;;;;;;;;15.42;63.65;101135.69;5127539;27;20043;-59
2023/01/03 02:58:46;;;;;;;13.07;8.70;;;;;;;15.41;63.72;101138.50;5119953;27;20002;-58
2023/01/03 03:01:18;;;;;;;14.18;9.07;;;;;;;15.40;63.52;101131.41;5115222;28;20035;-57
2023/01/03 03:03:47;;;;;;;14.68;9.27;;;;;;;15.38;63.58;101138.69;5115189;28;20488;-58
2023/01/03 03:06:23;;;;;;;14.50;9.45;;;;;;;15.35;63.56;101134.41;5115238;28;20089;-58
2023/01/03 03:08:52;;;;;;;14.65;9.77;;;;;;;15.35;63.65;101136.22;5115804;27;20044;-58
2023/01/03 03:14:12;;;;;;;12.88;8.75;;;;;;;15.32;63.64;101121.13;5126281;27;20055;-58
2023/01/03 03:16:48;;;;;;;13.93;8.82;;;;;;;15.31;63.61;101124.78;5119610;27;20400;-58
2023/01/03 03:25:09;;;;;;;11.27;7.65;;;;;;;15.26;63.66;101129.63;5131902;27;20122;-59
2023/01/03 03:30:30;;;;;;;12.65;8.50;;;;;;;15.24;63.61;101130.66;5121053;27;20556;-58
2023/01/03 03:33:05;;;;;;;13.02;7.80;;;;;;;15.22;63.61;101133.47;5131568;27;20047;-58
2023/01/03 03:35:41;;;;;;;12.50;8.13;;;;;;;15.20;63.83;101138.09;5121203;27;20100;-58
2023/01/03 03:38:13;;;;;;;12.25;8.20;;;;;;;15.18;63.71;101142.69;5123501;27;20546;-58
2023/01/03 03:46:44;;;;;;;12.15;8.05;;;;;;;15.14;63.75;101142.03;5072322;28;20070;-59
2023/01/03 03:49:40;;;;;;;12.70;8.00;;;;;;;15.12;63.85;101135.03;5119041;27;20039;-59
2023/01/03 03:52:14;;;;;;;12.93;8.18;;;;;;;15.12;63.69;101143.09;5123369;27;20044;-58
2023/01/03 03:54:48;;;;;;;11.48;8.13;;;;;;;15.08;63.66;101147.81;5130600;27;20088;-58
2023/01/03 03:57:22;;;;;;;11.13;7.47;;;;;;;15.09;63.80;101138.78;5116391;27;20047;-58
2023/01/03 03:59:58;;;;;;;12.23;7.75;;;;;;;15.07;63.81;101139.84;5123234;27;20050;-58
2023/01/03 04:02:30;;;;;;;13.02;8.05;;;;;;;15.05;63.82;101147.13;5120396;27;20512;-58
2023/01/03 04:05:06;;;;;;;11.30;7.65;;;;;;;15.05;63.74;101147.13;5131004;27;20043;-58
2023/01/03 04:07:35;;;;;;;11.27;7.65;;;;;;;15.05;63.80;101147.13;5120912;27;20047;-58
2023/01/03 04:10:06;;;;;;;11.05;7.53;;;;;;;15.03;63.90;101141.00;5123513;27;20058;-58
2023/01/03 04:12:35;;;;;;;11.48;7.63;;;;;;;15.02;63.90;101144.66;5129112;27;20046;-57
2023/01/03 04:15:05;;;;;;;12.15;7.90;;;;;;;15.01;63.80;101145.63;5099287;27;20492;-58
2023/01/03 04:17:34;;;;;;;10.50;7.20;;;;;;;14.98;63.84;101145.81;5127938;27;20054;-59
2023/01/03 04:20:04;;;;;;;12.07;7.53;;;;;;;14.98;63.91;101145.81;5124403;27;20075;-58
2023/01/03 04:22:32;;;;;;;11.50;7.20;;;;;;;14.96;64.01;101139.66;5101302;28;20119;-58
2023/01/03 04:25:00;;;;;;;11.93;7.88;;;;;;;14.93;63.88;101142.56;5130499;27;20114;-58
2023/01/03 04:27:29;;;;;;;10.30;7.18;;;;;;;14.93;63.98;101142.56;5119721;27;20414;-59
2023/01/03 04:29:58;;;;;;;11.88;7.78;;;;;;;14.91;64.06;101149.84;5124305;27;20055;-58
2023/01/03 04:32:26;;;;;;;11.82;7.88;;;;;;;14.89;63.98;101142.75;5127505;27;20054;-59
2023/01/03 04:34:54;;;;;;;9.55;7.05;;;;;;;14.88;63.97;101151.78;5116980;27;20127;-58
2023/01/03 04:37:23;;;;;;;12.13;7.70;;;;;;;14.89;63.93;101147.28;5128971;27;20041;-58
2023/01/03 04:39:55;;;;;;;;;;;;;;;14.91;64.00;101144.47;5123734;27;20058;-58
2023/01/03 04:45:10;;;;;;;9.18;6.25;;;;;;;15.02;64.28;101150.03;5130413;27;20088;-58
2023/01/03 04:47:39;;;;;;;10.13;6.40;;;;;;;15.12;64.28;101148.47;5120454;27;20119;-58
2023/01/03 04:50:09;;;;;;;10.32;6.55;;;;;;;15.22;64.14;101152.28;5122013;27;20051;-58
2023/01/03 04:52:39;;;;;;;9.65;6.55;;;;;;;15.34;63.98;101153.28;5128777;27;20442;-59
2023/01/03 04:55:08;;;;;;;10.90;6.65;;;;;;;15.42;63.86;101153.66;5116670;27;20050;-59
2023/01/03 04:57:36;;;;;;;8.68;6.32;;;;;;;15.55;63.93;101146.50;5126587;27;20040;-58
2023/01/03 05:00:07;;;;;;;8.40;5.95;;;;;;;15.64;63.51;101147.75;5124046;27;20047;-57
2023/01/03 05:02:36;;;;;;;9.93;6.63;;;;;;;15.75;63.39;101155.97;5118169;27;20043;-59
2023/01/03 05:05:05;;;;;;;8.65;6.07;;;;;;;15.85;63.26;101156.22;5130059;27;20047;-58
2023/01/03 05:07:33;;;;;;;8.10;5.88;;;;;;;15.95;63.12;101154.63;5119479;27;20549;-57
2023/01/03 05:10:03;;;;;;;7.95;5.70;;;;;;;16.01;63.12;101160.41;5122788;27;20055;-59
2023/01/03 05:12:32;;;;;;;9.75;5.93;;;;;;;16.06;62.96;101162.81;5126824;27;20499;-59
2023/01/03 05:15:00;;;;;;;9.45;6.03;;;;;;;16.10;62.94;101163.44;5116510;27;20116;-59
2023/01/03 05:17:28;;;;;;;9.80;6.25;;;;;;;16.11;63.20;101157.09;5108960;28;20047;-59
2023/01/03 05:25:52;;;;;;;9.80;6.22;;;;;;;16.12;62.85;101180.38;5100418;27;20453;-59
2023/01/03 05:28:23;;;;;;;8.32;6.07;;;;;;;16.10;62.75;101179.59;5120150;27;20109;-60
2023/01/03 05:30:52;;;;;;;8.38;6.13;;;;;;;16.08;63.03;101181.53;5129580;27;20154;-59
2023/01/03 05:33:21;;;;;;;8.50;5.90;;;;;;;16.06;63.00;101191.56;5117329;27;20049;-59
2023/01/03 05:35:49;;;;;;;10.13;6.20;;;;;;;16.02;63.33;101188.22;5124291;27;20058;-59
2023/01/03 05:38:18;;;;;;;9.70;5.88;;;;;;;16.01;63.23;101197.22;5125107;27;20565;-59
2023/01/03 05:40:48;;;;;;;8.90;5.97;;;;;;;15.97;63.25;101191.19;5097581;28;20455;-59
2023/01/03 05:43:16;;;;;;;9.52;5.82;;;;;;;15.95;63.29;101198.53;5111190;28;20109;-59
2023/01/03 05:45:49;;;;;;;8.13;5.82;;;;;;;15.92;63.25;101203.22;5112158;28;20047;-59
2023/01/03 05:48:18;;;;;;;9.32;6.05;;;;;;;15.90;63.25;101200.66;5112200;28;20126;-59
2023/01/03 05:50:47;;;;;;;8.43;6.20;;;;;;;15.88;63.33;101210.66;5112063;28;20108;-59
2023/01/03 05:53:15;;;;;;;8.52;5.70;;;;;;;15.85;63.31;101212.69;5115967;27;20055;-59
2023/01/03 05:55:43;;;;;;;8.10;5.75;;;;;;;15.83;63.37;101220.88;5124668;27;20072;-59
2023/01/03 05:58:13;;;;;;;8.55;5.93;;;;;;;15.79;63.35;101215.78;5114478;27;20043;-59
2023/01/03 06:00:41;;;;;;;8.77;5.93;;;;;;;15.76;63.45;101216.88;5128034;27;20047;-59
2023/01/03 06:03:09;;;;;;;8.95;6.22;;;;;;;15.73;63.46;101214.38;5115551;28;20123;-59
2023/01/03 06:05:37;;;;;;;9.50;6.47;;;;;;;15.70;63.59;101218.13;5125547;28;20043;-59
2023/01/03 06:08:13;;;;;;;9.73;5.72;;;;;;;15.67;63.57;101214.78;5123846;28;20046;-59
2023/01/03 06:10:41;;;;;;;10.13;6.75;;;;;;;15.64;63.70;101215.84;5116102;28;20060;-60
2023/01/03 06:13:10;;;;;;;8.25;5.88;;;;;;;15.63;63.64;101215.94;5128914;28;20046;-59
2023/01/03 06:15:39;;;;;;;9.48;6.57;;;;;;;15.58;63.49;101216.22;5119005;28;20085;-60
2023/01/03 06:18:06;;;;;;;9.48;5.97;;;;;;;15.55;63.43;101216.44;5120977;28;20043;-59
2023/01/03 06:20:35;;;;;;;9.15;6.32;;;;;;;15.53;63.43;101212.09;5127252;28;20082;-60
2023/01/03 06:23:04;;;;;;;8.50;5.43;;;;;;;15.50;63.30;101213.16;5115246;27;20054;-59
2023/01/03 06:25:32;;;;;;;9.30;6.18;;;;;;;15.48;63.24;101214.25;5130109;27;20492;-60
2023/01/03 06:28:00;;;;;;;8.05;5.88;;;;;;;15.45;63.11;101221.53;5126547;27;20086;-59
2023/01/03 06:30:28;;;;;;;9.63;6.03;;;;;;;15.42;63.20;101221.72;5121877;27;20035;-59
2023/01/03 06:32:58;;;;;;;8.23;5.55;;;;;;;15.39;63.13;101224.63;5132721;27;20384;-59
2023/01/03 06:35:26;;;;;;;8.15;5.88;;;;;;;15.37;63.10;101229.25;5121378;27;20038;-57
2023/01/03 06:37:54;;;;;;;8.25;5.85;;;;;;;15.34;63.17;101226.72;5129262;27;20639;-60
2023/01/03 06:40:22;;;;;;;8.05;5.63;;;;;;;15.31;63.18;101224.25;5117597;27;20071;-59
2023/01/03 06:42:51;;;;;;;8.80;6.03;;;;;;;15.30;63.08;101224.34;5114205;27;20051;-59
2023/01/03 06:53:41;;;;;;;8.43;5.70;;;;;;;15.19;63.04;101233.09;5122646;27;20065;-59
2023/01/03 06:56:10;;;;;;;7.75;5.38;;;;;;;15.16;63.44;101244.94;5124424;27;20039;-58
2023/01/03 06:58:38;;;;;;;8.80;5.68;;;;;;;15.15;63.09;101250.38;5131315;27;20100;-58
2023/01/03 07:01:06;;;;;;;8.32;5.65;;;;;;;15.13;63.42;101258.53;5118611;27;20105;-59
2023/01/03 07:03:36;;;;;;;7.57;5.30;;;;;;;15.10;62.97;101264.09;5110761;28;20048;-58
2023/01/03 07:06:04;;;;;;;8.13;5.53;;;;;;;15.07;63.00;101258.94;5126070;27;20496;-58
2023/01/03 07:08:33;;;;;;;7.55;5.13;;;;;;;15.07;63.05;101261.63;5120686;27;20062;-58
2023/01/03 07:11:01;;;;;;;8.07;5.40;;;;;;;15.06;63.00;101267.09;5131752;27;20053;-58
2023/01/03 07:16:15;;;;;;;7.22;5.00;;;;;;;15.01;62.90;101274.56;5123227;27;20046;-59
2023/01/03 07:18:45;;;;;;;6.72;4.80;;;;;;;15.01;63.00;101274.56;5131333;27;20075;-58
2023/01/03 07:21:22;;;;;;;7.32;5.15;;;;;;;14.99;63.09;101287.25;5101395;27;20039;-58
2023/01/03 07:23:53;;;;;;;7.15;4.68;;;;;;;14.96;62.84;101282.03;5126366;27;20043;-58
2023/01/03 07:26:23;;;;;;;7.30;5.07;;;;;;;14.96;63.04;101277.56;5123837;27;20554;-58
2023/01/03 07:28:51;;;;;;;7.72;4.97;;;;;;;14.94;62.98;101284.81;5096515;28;20086;-59
2023/01/03 07:31:20;;;;;;;8.10;5.45;;;;;;;14.91;63.08;101278.78;5114608;28;20051;-58
2023/01/03 07:33:51;;;;;;;7.68;5.20;;;;;;;14.89;63.06;101277.06;5114962;28;20051;-59
2023/01/03 07:36:20;;;;;;;7.40;5.15;;;;;;;14.89;63.21;101277.06;5095517;28;20067;-58
2023/01/03 07:38:48;;;;;;;7.60;4.90;;;;;;;14.90;63.40;101286.00;5114682;28;20048;-58
2023/01/03 07:41:17;;;;;;;8.23;4.97;;;;;;;14.92;63.60;101280.53;5116403;27;20051;-57
2023/01/03 07:43:47;;;;;;;7.43;5.05;;;;;;;14.90;63.91;101277.94;5116575;27;20043;-57
2023/01/03 07:46:17;;;;;;;8.05;5.45;;;;;;;14.91;64.04;101292.22;5122383;27;20051;-58
2023/01/03 07:48:47;;;;;;;7.50;4.90;;;;;;;14.88;64.07;101286.09;5132706;27;20054;-57
2023/01/03 07:51:19;;;;;;;9.43;5.35;;;;;;;14.87;64.17;101289.75;5116000;27;20613;-57
2023/01/03 07:53:50;;;;;;;8.25;5.40;;;;;;;14.86;64.22;101300.53;5134261;27;20044;-57
2023/01/03 07:56:20;;;;;;;7.57;5.18;;;;;;;14.83;64.09;101298.91;5127688;27;20126;-57
2023/01/03 07:58:50;;;;;;;8.75;5.30;;;;;;;14.84;63.91;101299.78;5134420;27;20043;-57
2023/01/03 08:01:20;;;;;;;7.28;5.22;;;;;;;14.87;64.34;101308.53;5134081;27;20058;-57
2023/01/03 08:03:49;;;;;;;7.80;5.07;;;;;;;14.91;65.07;101311.03;5134129;27;20043;-58
2023/01/03 08:06:20;;;;;;;7.22;4.95;;;;;;;14.95;64.92;101312.56;5134158;27;20039;-57
2023/01/03 08:13:16;;;;;;;9.02;4.90;;;;;;;14.99;65.19;101319.47;5133779;27;20062;-57
2023/01/03 08:14:24;;;;;;;7.68;4.65;;;;;;;15.07;65.15;101314.50;5115454;27;20104;-56
2023/01/03 08:16:54;;;;;;;7.80;5.10;;;;;;;15.06;65.27;101321.69;5134017;27;20047;-56
2023/01/03 08:19:23;;;;;;;6.22;4.38;;;;;;;15.10;65.23;101323.22;5133519;27;20043;-57
2023/01/03 08:21:53;;;;;;;7.28;4.65;;;;;;;15.10;65.20;101333.13;5133765;27;20499;-58
2023/01/03 08:24:21;;;;;;;7.00;4.80;;;;;;;15.11;65.22;101326.78;5134049;27;20043;-57
2023/01/03 08:26:49;;;;;;;7.18;4.35;;;;;;;15.11;65.10;101334.84;5133972;27;20043;-57
2023/01/03 08:29:17;;;;;;;8.38;4.65;;;;;;;15.12;64.98;101329.38;5113974;27;20081;-58
2023/01/03 08:31:50;;;;;;;8.70;4.90;;;;;;;15.11;64.99;101340.22;5115224;27;20062;-57
2023/01/03 08:34:20;;;;;;;8.60;4.63;;;;;;;15.09;64.94;101326.00;5133827;27;20575;-59
2023/01/03 08:37:01;;;;;;;7.15;4.70;;;;;;;15.11;64.71;101342.91;5133606;27;20498;-58
2023/01/03 08:39:34;;;;;;;8.05;4.82;;;;;;;15.09;64.71;101336.75;5133359;27;20395;-58
2023/01/03 08:47:30;;;;;;;6.18;4.40;;;;;;;15.06;64.71;101332.44;5133222;27;20067;-59
2023/01/03 08:50:00;;;;;;;7.75;4.68;;;;;;;15.05;64.74;101340.59;5132948;27;20040;-58
2023/01/03 08:52:29;;;;;;;7.40;4.53;;;;;;;15.04;64.34;101345.09;5114712;27;20047;-59
2023/01/03 08:55:02;;;;;;;7.35;4.78;;;;;;;15.04;64.24;101341.53;5133106;27;20070;-58
2023/01/03 08:57:30;;;;;;;6.45;4.43;;;;;;;15.03;64.02;101347.88;5133237;27;20049;-58
2023/01/03 08:59:59;;;;;;;7.38;5.00;;;;;;;15.02;64.23;101349.69;5114450;27;20047;-58
2023/01/03 09:02:27;;;;;;;7.63;4.43;;;;;;;15.02;64.05;101348.84;5132959;27;20439;-59
2023/01/03 09:04:56;;;;;;;7.90;4.90;;;;;;;14.99;64.33;101347.22;5132995;27;20373;-59
2023/01/03 09:07:24;;;;;;;6.22;4.55;;;;;;;14.99;64.33;101357.09;5114803;27;20129;-59
2023/01/03 09:09:59;;;;;;;6.70;4.70;;;;;;;14.98;64.36;101350.00;5133319;27;20180;-59
2023/01/03 09:12:28;;;;;;;8.25;4.50;;;;;;;14.97;64.41;101349.13;5133352;27;20087;-60
2023/01/03 09:14:56;;;;;;;6.57;4.32;;;;;;;14.98;64.70;101355.38;5114840;27;20047;-60
2023/01/03 09:17:24;;;;;;;6.38;4.40;;;;;;;14.96;64.66;101349.19;5133397;27;20070;-58
2023/01/03 09:19:53;;;;;;;7.18;4.40;;;;;;;14.96;64.65;101351.88;5132840;27;20079;-59
2023/01/03 09:22:22;;;;;;;7.03;4.38;;;;;;;14.95;64.66;101350.16;5110898;27;20046;-58
2023/01/03 09:24:50;;;;;;;7.18;4.80;;;;;;;14.94;64.55;101353.81;5132814;27;20043;-58
2023/01/03 09:27:19;;;;;;;7.38;4.68;;;;;;;14.95;64.47;101355.53;5114249;27;20537;-58
2023/01/03 09:29:47;;;;;;;7.65;4.30;;;;;;;14.93;64.58;101358.31;5114011;27;20047;-59
2023/01/03 09:32:16;;;;;;;7.35;4.82;;;;;;;14.92;64.49;101355.72;5114066;27;20085;-58
2023/01/03 09:34:44;;;;;;;7.20;4.50;;;;;;;14.92;64.53;101361.97;5130796;27;20050;-58
2023/01/03 09:37:12;;;;;;;6.88;4.55;;;;;;;14.89;64.50;101357.66;5132724;27;20074;-58
2023/01/03 09:39:41;;;;;;;6.95;4.53;;;;;;;14.90;64.57;101355.84;5132611;27;20095;-58
2023/01/03 09:45:08;;;;;;;7.93;4.38;;;;;;;14.89;64.57;101357.66;5132136;27;20126;-57
2023/01/03 09:47:38;;;;;;;7.07;4.38;;;;;;;14.88;64.45;101361.31;5113585;27;20047;-56
2023/01/03 09:50:11;;;;;;;7.28;4.28;;;;;;;14.89;64.41;101356.78;5132184;27;20035;-57
2023/01/03 10:04:49;;;;;;;6.85;4.60;;;;;;;14.86;64.39;101341.75;5113359;27;20051;-57
2023/01/03 10:07:46;;;;;;;6.00;4.13;;;;;;;14.87;64.49;101348.84;5129824;28;20448;-57
2023/01/03 10:10:21;;;;;;;8.05;4.60;;;;;;;14.87;64.38;101340.78;5113016;28;20055;-57
2023/01/03 10:13:00;;;;;;;7.38;4.60;;;;;;;14.86;64.40;101347.09;5113654;28;20061;-57
2023/01/03 10:15:42;;;;;;;7.05;4.30;;;;;;;14.87;64.52;101346.16;5113343;28;20073;-58
2023/01/03 10:18:24;;;;;;;8.63;4.60;;;;;;;14.88;64.44;101349.69;5131353;28;20043;-57
2023/01/03 10:20:56;;;;;;;7.68;4.95;;;;;;;14.88;64.42;101349.69;5111340;28;20089;-57
2023/01/03 10:23:25;;;;;;;6.40;4.18;;;;;;;14.87;64.44;101354.22;5111115;28;20092;-57
2023/01/03 10:25:54;;;;;;;6.97;4.13;;;;;;;14.88;64.52;101344.31;5093228;28;20500;-57
2023/01/03 10:28:25;;;;;;;7.35;4.40;;;;;;;14.89;64.43;101346.03;5092902;28;20067;-58
2023/01/03 10:31:17;;;;;;;8.13;4.50;;;;;;;14.91;65.34;101349.50;5111524;28;20067;-57
2023/01/03 10:33:47;;;;;;;7.50;4.78;;;;;;;14.94;65.36;101337.69;5111368;28;20378;-57
2023/01/03 10:36:16;;;;;;;7.82;4.55;;;;;;;14.94;65.47;101337.69;5111357;28;20400;-57
2023/01/03 10:38:45;;;;;;;7.90;4.72;;;;;;;14.99;66.88;101339.16;5093197;28;20479;-57
2023/01/03 10:41:29;;;;;;;7.57;4.88;;;;;;;15.01;67.37;101333.69;5111243;28;20052;-57
2023/01/03 10:43:58;;;;;;;8.68;5.25;;;;;;;15.03;67.29;101335.31;5111388;28;20047;-57
2023/01/03 10:46:29;;;;;;;12.50;5.40;;;;;;;15.03;66.95;101339.81;5111197;28;20092;-58
2023/01/03 10:49:13;;;;;;;6.90;4.57;;;;;;;15.04;66.83;101325.41;5111380;28;20408;-57
2023/01/03 10:52:01;;;;;;;8.25;5.30;;;;;;;15.03;66.85;101324.56;5111108;28;20043;-58
2023/01/03 10:54:35;;;;;;;7.50;4.95;;;;;;;15.06;66.81;101326.22;5092701;28;20060;-57
2023/01/03 10:57:05;;;;;;;11.52;5.40;;;;;;;15.06;66.99;101319.03;5092821;28;20139;-58
2023/01/03 10:59:34;;;;;;;8.20;5.07;;;;;;;15.07;67.33;101320.75;5115292;28;20560;-58
2023/01/03 11:02:16;;;;;;;8.73;5.05;;;;;;;15.08;67.54;101314.41;5132080;28;20062;-58
2023/01/03 11:04:45;;;;;;;9.23;5.30;;;;;;;15.10;67.66;101312.47;5112516;28;20051;-58
2023/01/03 11:07:15;;;;;;;9.48;5.57;;;;;;;15.12;67.80;101309.69;5132097;28;20043;-58
2023/01/03 11:09:49;;;;;;;12.02;5.57;;;;;;;15.13;68.07;101311.41;5113275;28;20122;-58
2023/01/03 11:12:26;;;;;;;10.70;5.72;;;;;;;15.14;68.37;101307.78;5135614;27;20067;-58
2023/01/03 11:14:57;;;;;;;9.15;5.22;;;;;;;15.15;68.54;101309.50;5135837;27;20047;-58
2023/01/03 11:17:27;;;;;;;10.80;5.65;;;;;;;15.16;68.76;101306.72;5135822;27;20050;-59
2023/01/03 11:20:00;;;;;;;10.13;5.55;;;;;;;15.17;68.67;101307.59;5135782;27;20051;-58
2023/01/03 11:22:37;;;;;;;10.82;5.13;;;;;;;15.19;68.71;101308.34;5135544;27;20065;-58
2023/01/03 11:25:36;;;;;;;8.68;5.47;;;;;;;15.22;68.72;101301.91;5135091;27;20049;-59
2023/01/03 11:28:37;;;;;;;11.13;5.68;;;;;;;15.26;68.81;101306.16;5101604;27;20047;-59
2023/01/03 11:31:11;;;;;;;10.73;5.55;;;;;;;15.28;69.26;101297.03;5126406;27;20076;-58
2023/01/03 11:33:57;;;;;;;10.18;4.88;;;;;;;15.31;69.74;101301.34;5116197;27;20075;-58
2023/01/03 11:36:37;;;;;;;10.82;5.75;;;;;;;15.34;70.58;101302.00;5116267;27;20080;-58
2023/01/03 11:39:19;;;;;;;10.07;5.47;;;;;;;15.37;71.06;101303.66;5134865;27;20047;-58
2023/01/03 11:42:19;;;;;;;8.73;5.60;;;;;;;15.39;71.41;101310.66;5133197;27;20492;-58
2023/01/03 11:45:26;;;;;;;9.88;5.30;;;;;;;15.39;71.78;101302.59;5113745;28;20046;-57
2023/01/03 11:48:11;;;;;;;10.63;5.50;;;;;;;15.41;71.96;101311.41;5109268;28;20420;-58
2023/01/03 11:50:49;;;;;;;10.63;5.80;;;;;;;15.42;72.07;101301.50;5113878;28;20043;-57
2023/01/03 11:53:32;;;;;;;11.02;5.18;;;;;;;15.42;72.14;101297.00;5095375;28;20044;-57
2023/01/03 11:56:19;;;;;;;9.98;5.80;;;;;;;15.43;72.19;101292.47;5113993;28;20069;-57
2023/01/03 11:59:14;;;;;;;8.32;4.85;;;;;;;15.44;72.41;101291.53;5095406;28;20515;-57
2023/01/03 12:02:08;;;;;;;9.40;5.43;;;;;;;15.45;72.34;101295.97;5113562;28;20055;-58
2023/01/03 12:04:42;;;;;;;8.73;5.20;;;;;;;15.45;72.42;101287.91;5113336;28;20119;-56
2023/01/03 12:07:16;;;;;;;9.23;5.30;;;;;;;15.45;72.33;101286.06;5113574;28;20394;-58
2023/01/03 12:10:14;;;;;;;8.45;5.22;;;;;;;15.46;72.21;101289.63;5113170;28;20488;-58
2023/01/03 12:13:04;;;;;;;11.20;5.35;;;;;;;15.46;72.18;101286.94;5113612;28;20094;-58
2023/01/03 12:15:41;;;;;;;10.18;5.70;;;;;;;15.46;72.01;101284.25;5094822;28;20409;-59
2023/01/03 12:18:20;;;;;;;12.95;5.50;;;;;;;15.51;71.92;101287.47;5113646;28;20070;-59
2023/01/03 12:20:55;;;;;;;11.77;5.63;;;;;;;15.50;71.52;101290.28;5113271;28;20485;-57
2023/01/03 12:23:35;;;;;;;9.05;5.20;;;;;;;15.48;71.18;101285.00;5113149;28;20135;-57
2023/01/03 12:26:08;;;;;;;8.90;5.03;;;;;;;15.46;70.78;101293.19;5113016;28;20088;-58
2023/01/03 12:28:39;;;;;;;9.20;5.53;;;;;;;15.45;70.16;101296.81;5094930;28;20057;-57
2023/01/03 12:31:19;;;;;;;9.20;5.28;;;;;;;15.42;69.93;101277.31;5094764;28;20552;-57
2023/01/03 12:34:02;;;;;;;9.43;5.47;;;;;;;15.40;69.80;101276.56;5112924;28;20043;-59
2023/01/03 12:36:40;;;;;;;8.45;4.95;;;;;;;15.40;69.69;101274.72;5113202;28;20047;-57
2023/01/03 12:39:31;;;;;;;8.80;5.00;;;;;;;15.41;69.88;101278.28;5113117;28;20047;-57
2023/01/03 12:42:10;;;;;;;7.72;5.07;;;;;;;15.41;69.99;101276.47;5094556;28;20046;-57
2023/01/03 12:44:41;;;;;;;9.75;5.28;;;;;;;15.45;71.38;101280.69;5094006;28;20093;-58
2023/01/03 12:47:20;;;;;;;9.02;5.25;;;;;;;15.50;72.09;101274.16;5094511;28;20052;-58
2023/01/03 12:49:57;;;;;;;9.25;5.15;;;;;;;15.53;72.84;101287.38;5094308;28;20043;-58
2023/01/03 12:52:27;;;;;;;10.82;5.47;;;;;;;15.57;73.16;101275.47;5112998;28;20078;-58